Latest Weather Observations for Albany Airport

IDW60801

Issued at 2:33 am WST Tuesday 24 October 2017 (issued every 30 minutes, with the page automatically refreshed every 10 minutes)

About weather observations | Map of weather stations | Latest weather observations for WA | Other Formats
Station Details ID: 009999 Name: ALBANY AIRPORT Lat: -34.94 Lon: 117.82 Height: 68.4 m
Data from the previous 72 hours. | See also: Recent months at Albany Airport
Date/Time
WST
Temp
°C
App
Temp
°C
Dew
Point
°C
Rel
Hum
%
Delta-T
°C
Wind Press
QNH
hPa
Press
MSL
hPa
Rain since
9am
mm
Dir  Spd
km/h
Gust
km/h
Spd
kts
Gust
kts
24/02:30am 13.8 12.2 12.7 93 0.6 SSW 13 15 7 8 1016.2 1016.2 0.8
24/02:00am 13.9 12.3 12.8 93 0.6 SW 13 17 7 9 1016.3 1016.3 0.8
24/01:30am 13.9 12.4 13.0 94 0.5 SW 13 17 7 9 1016.4 1016.4 0.6
24/01:00am 14.2 13.6 13.5 96 0.4 WSW 9 11 5 6 1016.4 1016.4 0.6
24/12:30am 14.3 14.1 13.6 96 0.4 WSW 7 9 4 5 1016.7 1016.7 0.6
24/12:00am 14.2 14.0 13.7 97 0.3 WSW 7 9 4 5 1016.8 1016.8 0.6
 
Date/Time
WST
Temp
°C
App
Temp
°C
Dew
Point
°C
Rel
Hum
%
Delta-T
°C
Wind Press
QNH
hPa
Press
MSL
hPa
Rain since
9am
mm
Dir  Spd
km/h
Gust
km/h
Spd
kts
Gust
kts
23/11:48pm 14.3 14.1 13.6 96 0.4 SW 7 9 4 5 1016.9 1016.9 0.6
23/11:30pm 14.4 13.9 13.7 96 0.4 SW 9 13 5 7 1017.0 1017.0 0.6
23/11:00pm 14.4 12.8 14.0 97 0.2 SSW 15 20 8 11 1017.0 1017.0 0.6
23/10:30pm 14.6 13.1 14.1 97 0.3 SW 15 20 8 11 1016.9 1016.9 0.6
23/10:00pm 14.8 12.6 14.3 97 0.3 SW 19 26 10 14 1016.9 1016.9 0.6
23/09:30pm 15.2 12.9 14.7 97 0.3 SW 20 30 11 16 1017.0 1017.0 0.6
23/09:16pm 15.6 14.0 14.9 96 0.4 WSW 17 26 9 14 1017.0 1017.0 0.6
23/09:00pm 15.8 15.3 14.8 94 0.6 W 11 17 6 9 1016.8 1016.8 0.4
23/08:58pm 15.8 15.3 14.8 94 0.6 W 11 15 6 8 1016.8 1016.8 0.4
23/08:30pm 15.9 15.4 14.9 94 0.6 W 11 15 6 8 1016.8 1016.8 0.4
23/08:00pm 15.8 16.1 14.9 94 0.5 SW 7 9 4 5 1016.2 1016.2 0.4
23/07:41pm 15.9 16.2 15.0 94 0.5 WSW 7 11 4 6 1016.2 1016.2 0.4
23/07:30pm 15.9 15.8 15.0 94 0.5 W 9 9 5 5 1016.2 1016.2 0.4
23/07:15pm 15.9 15.8 15.0 94 0.5 SW 9 13 5 7 1016.0 1016.0 0.4
23/07:00pm 16.1 16.1 15.1 94 0.6 SW 9 11 5 6 1016.0 1016.0 0.4
23/06:52pm 16.1 16.1 15.1 94 0.6 SW 9 11 5 6 1016.0 1016.0 0.4
23/06:45pm 16.1 16.1 15.1 94 0.6 SW 9 11 5 6 1015.9 1015.9 0.4
23/06:30pm 16.2 15.4 15.2 94 0.6 WSW 13 17 7 9 1015.9 1015.9 0.4
23/06:27pm 16.4 15.6 15.0 91 0.8 WSW 13 17 7 9 1015.8 1015.8 0.4
23/06:00pm 16.8 16.6 14.7 87 1.2 SSW 9 15 5 8 1015.5 1015.5 0.4
23/05:58pm 16.8 16.6 14.7 87 1.2 SSW 9 15 5 8 1015.4 1015.4 0.4
23/05:30pm 16.9 16.4 14.8 87 1.2 SW 11 13 6 7 1015.3 1015.3 0.4
23/05:00pm 17.1 16.5 14.7 86 1.4 SSW 11 15 6 8 1015.0 1015.0 0.4
23/04:30pm 18.0 17.5 14.9 82 1.8 SSW 11 17 6 9 1014.8 1014.8 0.4
23/04:00pm 18.3 17.7 14.7 79 2.1 SSW 11 15 6 8 1014.7 1014.7 0.4
23/03:30pm 18.5 17.5 14.7 78 2.2 SSW 13 17 7 9 1014.4 1014.4 0.4
23/03:00pm 18.7 17.6 14.4 76 2.5 SSW 13 17 7 9 1014.3 1014.3 0.4
23/02:30pm 18.9 17.8 14.4 75 2.6 SSW 13 20 7 11 1014.1 1014.1 0.4
23/02:00pm 19.1 18.3 13.9 72 3.0 SSW 11 17 6 9 1013.9 1013.9 0.4
23/01:30pm 19.5 18.7 14.0 70 3.2 S 11 13 6 7 1014.0 1014.0 0.4
23/01:00pm 19.1 18.1 14.5 74 2.7 SSW 13 19 7 10 1014.1 1014.1 0.4
23/12:30pm 17.9 17.2 15.3 85 1.5 SW 13 17 7 9 1014.3 1014.3 0.4
23/12:10pm 17.8 18.2 16.3 91 0.9 W 9 13 5 7 1014.2 1014.2 0.4
23/12:07pm 17.5 17.7 15.8 90 1.0 W 9 13 5 7 1014.2 1014.2 0.4
23/12:00pm 17.3 17.1 15.8 91 0.9 WSW 11 15 6 8 1014.2 1014.2 0.4
23/11:30am 16.9 16.5 16.2 96 0.4 SSW 13 17 7 9 1014.4 1014.4 0.2
23/11:00am 16.7 16.1 15.7 94 0.6 SSW 13 15 7 8 1014.5 1014.5 0.0
23/10:45am 16.8 16.2 15.6 93 0.7 SSW 13 17 7 9 1014.5 1014.5 0.0
23/10:30am 17.1 16.9 15.6 91 0.9 SSW 11 17 6 9 1014.6 1014.6 0.0
23/10:02am 16.9 16.6 15.5 91 0.8 SW 11 15 6 8 1014.6 1014.6 0.0
23/10:00am 16.8 16.6 15.6 93 0.7 SW 11 15 6 8 1014.6 1014.6 0.0
23/09:51am 16.8 16.1 15.4 91 0.8 SW 13 17 7 9 1014.6 1014.6 0.0
23/09:43am 17.4 17.2 14.6 83 1.6 SW 9 13 5 7 1014.6 1014.6 0.0
23/09:30am 17.6 17.0 14.7 83 1.7 SW 11 15 6 8 1014.5 1014.5 0.0
23/09:28am 17.5 16.9 14.7 83 1.6 SW 11 15 6 8 1014.4 1014.4 0.0
23/09:00am 17.0 16.2 15.1 88 1.1 SSW 13 17 7 9 1014.3 1014.3 0.4
23/08:30am 16.8 16.1 15.3 91 0.9 WSW 13 17 7 9 1014.2 1014.2 0.4
23/08:00am 16.6 15.8 15.0 90 0.9 WSW 13 19 7 10 1014.0 1014.0 0.4
23/07:30am 16.4 16.2 15.7 96 0.4 WSW 11 15 6 8 1013.7 1013.7 0.4
23/07:00am 16.2 15.7 15.9 98 0.2 W 13 15 7 8 1013.4 1013.4 0.4
23/06:30am 16.0 16.3 16.0 100 0.0 W 9 13 5 7 1013.3 1013.3 0.4
23/06:20am 15.9 16.5 15.9 100 0.0 WSW 7 9 4 5 1013.3 1013.3 0.4
23/06:00am 15.6 17.1 15.6 100 0.0 NNW 2 6 1 3 1013.2 1013.2 0.4
23/05:30am 15.6 16.2 15.4 99 0.1 NW 6 7 3 4 1012.8 1012.7 0.4
23/05:00am 15.4 16.4 15.4 100 0.0 WNW 4 7 2 4 1012.8 1012.7 0.4
23/04:30am 15.2 16.8 15.0 99 0.1 CALM 0 0 0 0 1012.7 1012.6 0.4
23/04:00am 15.1 16.7 14.9 99 0.1 CALM 0 0 0 0 1012.6 1012.5 0.4
23/03:56am 15.1 16.7 14.9 99 0.1 CALM 0 0 0 0 1012.6 1012.5 0.4
23/03:30am 15.0 16.2 15.0 100 0.0 SSW 2 6 1 3 1012.6 1012.5 0.4
23/03:00am 15.0 14.8 14.8 99 0.1 W 9 13 5 7 1012.5 1012.4 0.4
23/02:30am 15.1 15.4 15.1 100 0.0 WNW 7 11 4 6 1012.5 1012.4 0.4
23/02:00am 15.3 16.3 15.3 100 0.0 NNW 4 7 2 4 1012.5 1012.4 0.4
23/01:31am 15.4 16.3 15.2 99 0.1 N 4 7 2 4 1012.4 1012.3 0.4
23/01:30am 15.4 16.3 15.2 99 0.1 N 4 7 2 4 1012.4 1012.3 0.4
23/01:00am 15.5 16.2 15.5 100 0.0 NE 6 11 3 6 1012.6 1012.5 0.4
23/12:30am 15.5 15.9 15.3 99 0.1 NE 7 11 4 6 1012.8 1012.7 0.4
23/12:00am 15.5 15.9 15.3 99 0.1 ENE 7 9 4 5 1013.1 1013.1 0.4
 
Date/Time
WST
Temp
°C
App
Temp
°C
Dew
Point
°C
Rel
Hum
%
Delta-T
°C
Wind Press
QNH
hPa
Press
MSL
hPa
Rain since
9am
mm
Dir  Spd
km/h
Gust
km/h
Spd
kts
Gust
kts
22/11:30pm 15.4 16.3 15.2 99 0.1 N 4 7 2 4 1013.3 1013.3 0.4
22/11:00pm 15.4 15.7 15.1 98 0.2 NE 7 9 4 5 1013.3 1013.3 0.4
22/10:39pm 14.8 15.1 14.6 99 0.1 NE 6 7 3 4 1013.2 1013.2 0.4
22/10:30pm 15.0 14.8 14.7 98 0.2 NE 9 11 5 6 1013.2 1013.2 0.4
22/10:05pm 14.8 14.5 14.3 97 0.3 ENE 9 9 5 5 1013.2 1013.2 0.4
22/10:00pm 15.0 14.8 14.7 98 0.2 ENE 9 11 5 6 1013.2 1013.2 0.4
22/09:30pm 15.7 15.5 14.8 94 0.5 E 9 13 5 7 1013.2 1013.2 0.4
22/09:00pm 16.3 16.0 15.4 94 0.5 ESE 11 13 6 7 1013.1 1013.1 0.4
22/08:30pm 16.4 16.5 15.4 94 0.6 E 9 13 5 7 1013.0 1012.9 0.4
22/08:00pm 16.8 16.6 15.8 94 0.6 SE 11 13 6 7 1012.8 1012.7 0.4
22/07:30pm 17.7 17.7 16.2 91 0.9 SE 11 13 6 7 1012.7 1012.6 0.4
22/07:00pm 18.6 19.1 16.6 88 1.2 SSE 9 13 5 7 1012.6 1012.5 0.4
22/06:30pm 19.8 21.0 16.8 83 1.8 S 6 7 3 4 1012.4 1012.3 0.4
22/06:00pm 20.3 20.4 16.5 79 2.3 ESE 11 15 6 8 1011.9 1011.8 0.4
22/05:30pm 20.5 20.5 17.1 81 2.1 SE 13 15 7 8 1011.4 1011.3 0.4
22/05:00pm 21.3 21.2 16.9 76 2.7 SE 13 17 7 9 1011.3 1011.2 0.4
22/04:30pm 22.1 21.1 16.5 70 3.4 SE 17 20 9 11 1011.2 1011.1 0.4
22/04:00pm 22.8 21.8 16.6 68 3.8 SE 17 20 9 11 1011.1 1011.0 0.4
22/03:30pm 21.9 20.3 16.1 69 3.5 SE 19 24 10 13 1011.3 1011.2 0.4
22/03:00pm 22.1 21.3 16.2 69 3.6 SSE 15 19 8 10 1011.5 1011.4 0.4
22/02:30pm 23.3 23.1 16.8 67 4.0 SSE 13 17 7 9 1011.4 1011.3 0.2
22/02:00pm 23.1 21.9 16.0 64 4.3 SE 17 22 9 12 1011.7 1011.6 0.2
22/01:30pm 23.9 22.6 14.9 57 5.4 ENE 15 20 8 11 1012.3 1012.2 0.2
22/01:00pm 23.3 21.3 14.9 59 5.0 ENE 19 26 10 14 1012.4 1012.3 0.2
22/12:30pm 22.9 21.7 16.0 65 4.2 ENE 17 24 9 13 1012.8 1012.7 0.2
22/12:00pm 21.2 20.2 15.7 71 3.3 ENE 15 20 8 11 1013.1 1013.1 0.2
22/11:30am 19.8 19.6 15.6 77 2.5 ENE 11 15 6 8 1013.5 1013.5 0.2
22/11:00am 19.3 18.0 14.9 75 2.6 ENE 15 20 8 11 1014.1 1014.1 0.0
22/10:30am 20.0 17.5 14.1 69 3.4 ENE 20 26 11 14 1013.9 1013.9 0.0
22/10:00am 20.1 18.5 15.9 77 2.5 ENE 19 20 10 11 1014.0 1014.0 0.0
22/09:30am 18.8 18.3 15.8 83 1.8 NE 13 20 7 11 1014.9 1014.9 0.0
22/09:00am 18.6 18.5 16.1 85 1.5 NNE 11 13 6 7 1015.7 1015.7 0.2
22/08:30am 17.8 17.2 15.6 87 1.3 E 13 17 7 9 1015.5 1015.5 0.2
22/08:00am 17.0 17.6 15.8 93 0.7 ESE 7 9 4 5 1016.0 1016.0 0.2
22/07:57am 16.8 17.7 16.0 95 0.5 SE 6 9 3 5 1016.0 1016.0 0.2
22/07:30am 16.4 18.2 15.5 94 0.5 CALM 0 0 0 0 1016.5 1016.5 0.2
22/07:26am 16.3 18.1 15.4 94 0.5 CALM 0 0 0 0 1016.5 1016.5 0.2
22/07:00am 15.9 16.5 15.4 97 0.3 WSW 6 9 3 5 1016.9 1016.9 0.2
22/06:30am 15.7 15.3 15.2 97 0.3 W 11 13 6 7 1016.9 1016.9 0.2
22/06:00am 15.6 15.5 14.9 96 0.4 S 9 13 5 7 1016.2 1016.2 0.2
22/05:30am 15.6 14.6 14.6 94 0.6 WSW 13 15 7 8 1016.7 1016.7 0.0
22/05:00am 15.6 15.0 14.6 94 0.6 SW 11 15 6 8 1015.9 1015.9 0.0
22/04:30am 15.7 14.9 14.1 90 0.9 E 11 17 6 9 1015.0 1015.0 0.0
22/04:00am 15.7 13.9 14.5 93 0.7 ENE 17 20 9 11 1015.4 1015.4 0.0
22/03:30am 15.7 13.3 14.5 93 0.7 ENE 20 28 11 15 1015.4 1015.4 0.0
22/03:00am 15.9 13.8 14.7 93 0.7 ENE 19 24 10 13 1016.2 1016.2 0.0
22/02:30am 16.2 14.4 14.5 90 1.0 ENE 17 24 9 13 1016.5 1016.5 0.0
22/02:00am 16.1 14.1 13.8 86 1.3 E 17 24 9 13 1016.0 1016.0 0.0
22/01:30am 15.8 14.4 13.3 85 1.4 ESE 13 20 7 11 1016.6 1016.6 0.0
22/01:00am 15.9 13.9 12.8 82 1.7 ESE 15 20 8 11 1017.1 1017.1 0.0
22/12:30am 15.8 13.5 13.1 84 1.5 ESE 17 24 9 13 1017.7 1017.7 0.0
22/12:00am 15.8 13.8 12.7 82 1.7 ESE 15 20 8 11 1018.0 1018.0 0.0
 
Date/Time
WST
Temp
°C
App
Temp
°C
Dew
Point
°C
Rel
Hum
%
Delta-T
°C
Wind Press
QNH
hPa
Press
MSL
hPa
Rain since
9am
mm
Dir  Spd
km/h
Gust
km/h
Spd
kts
Gust
kts
21/11:30pm 16.0 14.0 12.6 80 1.9 E 15 20 8 11 1018.7 1018.7 0.0
21/11:00pm 15.9 13.4 12.4 80 1.9 E 17 24 9 13 1018.3 1018.3 0.0
21/10:30pm 16.0 13.0 12.6 80 1.9 ENE 20 30 11 16 1018.6 1018.6 0.0
21/10:00pm 16.3 13.7 12.1 76 2.3 NE 17 26 9 14 1019.3 1019.3 0.0
21/09:30pm 15.8 13.4 12.5 81 1.8 ENE 17 24 9 13 1019.4 1019.4 0.0
21/09:00pm 15.7 12.4 12.8 83 1.6 E 22 32 12 17 1019.2 1019.2 0.0
21/08:30pm 15.5 13.3 13.2 86 1.3 E 17 24 9 13 1019.8 1019.8 0.0
21/08:00pm 15.6 12.8 13.3 86 1.3 ENE 20 26 11 14 1020.5 1020.5 0.0
21/07:30pm 15.6 12.5 13.3 86 1.3 ENE 22 30 12 16 1020.2 1020.2 0.0
21/07:00pm 15.6 11.7 13.3 86 1.3 ENE 26 33 14 18 1020.1 1020.1 0.0
21/06:30pm 15.6 12.8 13.3 86 1.3 ENE 20 28 11 15 1020.4 1020.4 0.0
21/06:00pm 15.8 13.0 13.1 84 1.5 ENE 20 35 11 19 1020.9 1020.9 0.0
21/05:30pm 16.0 12.4 12.9 82 1.7 ENE 24 32 13 17 1020.9 1020.9 0.0
21/05:00pm 16.2 12.3 13.2 82 1.7 E 26 35 14 19 1020.6 1020.6 0.0
21/04:30pm 16.6 12.7 13.4 81 1.8 E 26 33 14 18 1021.3 1021.3 0.0
21/04:00pm 16.9 13.0 13.3 79 2.0 E 26 33 14 18 1021.5 1021.5 0.0
21/03:30pm 17.4 13.6 13.5 78 2.2 E 26 33 14 18 1022.0 1022.0 0.0
21/03:00pm 17.8 14.0 13.6 76 2.4 E 26 33 14 18 1022.4 1022.4 0.0
21/02:30pm 18.1 13.8 13.3 73 2.7 ESE 28 35 15 19 1023.0 1022.9 0.0
21/02:00pm 18.3 14.0 13.2 72 2.9 ESE 28 37 15 20 1022.9 1022.8 0.0
21/01:30pm 18.9 15.0 13.2 69 3.2 ESE 26 35 14 19 1023.2 1023.1 0.0
21/01:00pm 20.2 16.1 13.8 66 3.7 ESE 28 33 15 18 1023.1 1023.0 0.0
21/12:30pm 20.3 16.2 13.7 66 3.8 ESE 28 33 15 18 1023.6 1023.5 0.0
21/12:00pm 20.7 17.2 14.5 67 3.6 ESE 26 33 14 18 1024.0 1023.9 0.0
21/11:30am 20.3 16.7 13.1 63 4.1 E 24 32 13 17 1023.9 1023.8 0.0
21/11:00am 20.7 17.4 12.9 61 4.4 E 22 30 12 16 1024.5 1024.4 0.0
21/10:30am 20.7 17.5 13.1 61 4.3 E 22 28 12 15 1025.2 1025.2 0.0
21/10:00am 19.6 16.7 12.9 65 3.8 ENE 20 30 11 16 1025.5 1025.5 0.0
21/09:30am 19.1 15.8 12.9 67 3.5 E 22 32 12 17 1025.6 1025.6 0.0
21/09:00am 18.4 15.1 12.7 69 3.2 E 22 30 12 16 1025.6 1025.6 0.0
21/08:30am 17.8 14.4 12.4 70 3.0 E 22 30 12 16 1025.9 1025.9 0.0
21/08:00am 17.0 14.2 12.7 76 2.4 E 19 28 10 15 1026.2 1026.2 0.0
21/07:30am 16.5 13.1 12.5 77 2.2 ENE 22 32 12 17 1026.5 1026.5 0.0
21/07:00am 15.8 11.5 11.9 77 2.1 ENE 26 37 14 20 1026.4 1026.4 0.0
21/06:38am 15.3 11.4 12.2 82 1.7 ENE 24 32 13 17 1026.4 1026.4 0.0
21/06:30am 15.3 12.1 12.0 81 1.8 E 20 28 11 15 1026.4 1026.4 0.0
21/06:00am 15.0 9.9 12.0 82 1.6 ENE 30 39 16 21 1026.2 1026.2 0.0
21/05:30am 14.9 11.1 12.3 84 1.4 E 24 35 13 19 1026.0 1026.0 0.0
21/05:00am 14.8 10.2 12.2 84 1.4 ENE 28 37 15 20 1025.9 1025.9 0.0
21/04:30am 14.6 11.1 12.2 85 1.3 E 22 32 12 17 1025.9 1025.9 0.0
21/04:00am 14.6 11.0 12.0 84 1.4 E 22 35 12 19 1026.0 1026.0 0.0
21/03:30am 14.8 11.2 12.0 83 1.5 E 22 32 12 17 1026.1 1026.1 0.0
21/03:00am 14.7 11.1 11.9 83 1.5 E 22 33 12 18 1026.4 1026.4 0.0
21/02:55am 14.7 11.1 11.9 83 1.5 ENE 22 30 12 16 1026.4 1026.4 0.0

Other Formats:

Comma delimited format used in spreadsheet applications
http://www.bom.gov.au/fwo/IDW60801/IDW60801.94802.axf

JavaScript Object Notation format (JSON) in row-major order
http://www.bom.gov.au/fwo/IDW60801/IDW60801.94802.json